Time;durP1;ratioP1;P1;durP2;ratioP2;P2;SDS_P1;SDS_P2;PMS_P1;PMS_P2;Temp;Humidity;BMP_temperature;BMP_pressure;BME280_temperature;BME280_humidity;BME280_pressure;Samples;Min_cycle;Max_cycle;Signal;HPM_P1;HPM_P2
2022/03/18 00:01:09;;;;;;;36.75;21.37;;;;;;;5.21;56.21;101689.28;4443133;32;32121;-80
2022/03/18 00:03:45;;;;;;;36.08;21.25;;;;;;;5.23;55.97;101684.56;4443218;32;32261;-80
2022/03/18 00:06:21;;;;;;;40.10;21.12;;;;;;;5.46;55.24;101690.84;4445049;32;34430;-81
2022/03/18 00:09:02;;;;;;;38.03;20.77;;;;;;;5.41;55.25;101690.38;4443707;32;34498;-81
2022/03/18 00:11:41;;;;;;;39.33;20.10;;;;;;;5.46;55.10;101697.16;4455412;32;31798;-80
2022/03/18 00:14:19;;;;;;;36.08;20.10;;;;;;;5.34;55.33;101690.00;4455460;32;33599;-80
2022/03/18 00:16:56;;;;;;;35.08;20.08;;;;;;;5.14;55.67;101691.66;4468140;32;35177;-81
2022/03/18 00:19:43;;;;;;;37.78;20.95;;;;;;;5.24;55.56;101699.91;4456002;32;32525;-80
2022/03/18 00:22:23;;;;;;;38.55;20.35;;;;;;;5.17;55.55;101694.13;4468248;32;33514;-80
2022/03/18 00:25:04;;;;;;;37.03;20.98;;;;;;;4.94;55.93;101701.44;4455519;32;33264;-80
2022/03/18 00:27:39;;;;;;;37.83;20.50;;;;;;;5.03;55.81;101702.56;4456788;32;35559;-80
2022/03/18 00:30:17;;;;;;;34.70;19.25;;;;;;;5.03;55.60;101702.56;4470035;32;34060;-80
2022/03/18 00:32:55;;;;;;;34.08;18.58;;;;;;;5.02;55.64;101699.97;4457224;32;33171;-80
2022/03/18 00:35:43;;;;;;;35.70;19.10;;;;;;;5.01;55.76;101706.38;4459417;32;33753;-80
2022/03/18 00:38:14;;;;;;;35.95;19.27;;;;;;;4.98;56.16;101712.94;4457181;32;34271;-80
2022/03/18 00:40:45;;;;;;;36.30;19.05;;;;;;;5.09;55.76;101703.91;4457207;32;32397;-79
2022/03/18 00:43:23;;;;;;;37.00;20.08;;;;;;;5.14;55.62;101705.28;4456327;32;31885;-80
2022/03/18 00:45:56;;;;;;;34.80;19.20;;;;;;;5.18;55.26;101706.75;4469922;32;33840;-80
2022/03/18 00:54:25;;;;;;;38.33;20.12;;;;;;;4.87;55.77;101715.66;4458496;32;33263;-80
2022/03/18 00:57:04;;;;;;;36.70;19.27;;;;;;;4.84;55.86;101708.59;4469915;32;34056;-80
2022/03/18 00:59:43;;;;;;;31.50;18.23;;;;;;;5.01;55.52;101714.56;4469772;32;34554;-80
2022/03/18 01:02:19;;;;;;;35.42;18.85;;;;;;;4.89;55.73;101714.53;4457880;32;33505;-80
2022/03/18 01:04:55;;;;;;;37.67;18.77;;;;;;;5.01;55.44;101723.59;4457208;32;33483;-80
2022/03/18 01:07:30;;;;;;;32.65;18.33;;;;;;;4.75;56.39;101713.91;4444908;32;32931;-80
2022/03/18 01:10:02;;;;;;;29.90;18.05;;;;;;;4.84;56.23;101722.22;4444609;32;33105;-80
2022/03/18 01:12:43;;;;;;;33.17;19.05;;;;;;;4.87;55.91;101716.53;4470096;32;32999;-79
2022/03/18 01:15:17;;;;;;;30.65;18.35;;;;;;;4.82;55.99;101718.75;4469960;32;34208;-80
2022/03/18 01:17:50;;;;;;;34.92;19.02;;;;;;;5.00;55.33;101721.84;4456842;32;32273;-79
2022/03/18 01:20:28;;;;;;;33.35;19.20;;;;;;;4.70;56.05;101714.28;4470875;32;34224;-80
2022/03/18 01:23:04;;;;;;;32.08;18.70;;;;;;;4.74;55.98;101715.75;4457280;32;34055;-80
2022/03/18 01:25:47;;;;;;;36.83;19.12;;;;;;;4.52;56.50;101718.47;4457742;32;32066;-80
2022/03/18 01:28:30;;;;;;;35.58;18.35;;;;;;;4.58;56.39;101710.66;4456940;32;32317;-81
2022/03/18 01:31:11;;;;;;;36.10;18.75;;;;;;;4.82;55.80;101717.87;4446132;32;34425;-80
2022/03/18 01:33:48;;;;;;;33.88;18.62;;;;;;;4.81;55.74;101716.16;4457397;32;32466;-79
2022/03/18 01:36:33;;;;;;;34.38;18.67;;;;;;;4.80;55.74;101720.72;4469711;32;33482;-80
2022/03/18 01:39:08;;;;;;;35.83;18.77;;;;;;;4.82;55.53;101723.31;4457104;32;33770;-80
2022/03/18 01:41:47;;;;;;;31.95;18.42;;;;;;;4.69;55.70;101726.13;4456935;32;34085;-80
2022/03/18 01:44:21;;;;;;;37.65;19.02;;;;;;;4.73;55.52;101722.19;4456691;32;32630;-79
2022/03/18 01:46:54;;;;;;;35.13;19.12;;;;;;;4.69;55.64;101725.28;4456733;32;32807;-80
2022/03/18 01:49:33;;;;;;;37.05;20.00;;;;;;;4.68;55.56;101729.84;4469362;32;31815;-80
2022/03/18 01:52:11;;;;;;;36.20;19.20;;;;;;;4.59;56.05;101722.41;4457469;32;32919;-80
2022/03/18 01:54:49;;;;;;;33.30;18.52;;;;;;;4.49;56.13;101733.16;4456849;32;32317;-79
2022/03/18 01:57:26;;;;;;;34.55;18.85;;;;;;;4.54;55.92;101749.13;4444235;32;31588;-81
2022/03/18 02:00:08;;;;;;;35.45;19.08;;;;;;;4.52;56.10;101742.94;4469455;32;33758;-79
2022/03/18 02:02:47;;;;;;;36.33;19.12;;;;;;;4.47;56.84;101739.72;4468749;32;32974;-80
2022/03/18 02:05:29;;;;;;;35.15;18.92;;;;;;;4.51;56.87;101735.78;4457080;32;34210;-81
2022/03/18 02:08:08;;;;;;;36.58;19.55;;;;;;;4.27;57.51;101733.97;4457416;32;33261;-80
2022/03/18 02:10:44;;;;;;;37.92;20.12;;;;;;;4.36;57.03;101737.81;4456823;32;33772;-80
2022/03/18 02:13:27;;;;;;;39.33;21.70;;;;;;;4.62;56.26;101742.06;4457469;32;35117;-81
2022/03/18 02:16:09;;;;;;;39.85;21.50;;;;;;;4.56;56.49;101737.12;4457290;32;34113;-80
2022/03/18 02:18:43;;;;;;;35.70;21.08;;;;;;;4.29;57.28;101753.75;4470632;32;34032;-79
2022/03/18 02:21:17;;;;;;;38.58;20.52;;;;;;;4.42;56.99;101747.34;4469412;32;33473;-80
2022/03/18 02:23:53;;;;;;;37.85;20.10;;;;;;;4.49;56.59;101754.91;4456457;32;32795;-80
2022/03/18 02:26:26;;;;;;;38.50;19.92;;;;;;;4.47;56.70;101764.19;4469439;32;33961;-79
2022/03/18 02:29:03;;;;;;;38.38;21.30;;;;;;;4.48;56.54;101758.63;4469409;32;32316;-80
2022/03/18 02:31:42;;;;;;;43.10;23.15;;;;;;;4.49;56.43;101765.81;4456016;32;32261;-81
2022/03/18 02:34:15;;;;;;;49.72;24.58;;;;;;;4.34;57.04;101761.53;4443890;32;33895;-79
2022/03/18 02:36:48;;;;;;;39.72;23.33;;;;;;;4.23;57.71;101775.94;4456689;32;33344;-79
2022/03/18 02:39:18;;;;;;;48.80;28.10;;;;;;;4.34;57.44;101771.53;4456066;32;31798;-80
2022/03/18 02:41:52;;;;;;;53.22;29.37;;;;;;;4.47;57.01;101773.22;4456436;32;33604;-80
2022/03/18 02:44:22;;;;;;;47.95;27.30;;;;;;;4.40;57.21;101771.06;4468990;32;35914;-80
2022/03/18 02:46:54;;;;;;;43.53;24.48;;;;;;;4.47;57.21;101777.78;4456259;32;33926;-80
2022/03/18 02:49:30;;;;;;;41.33;23.35;;;;;;;4.28;57.58;101779.19;4469067;32;33130;-80
2022/03/18 02:52:07;;;;;;;45.28;25.98;;;;;;;4.39;57.32;101774.78;4455178;32;32632;-80
2022/03/18 02:54:46;;;;;;;42.10;23.95;;;;;;;4.49;56.87;101781.25;4468777;32;34488;-79
2022/03/18 02:57:22;;;;;;;44.08;23.92;;;;;;;4.34;57.11;101787.84;4469106;32;33808;-79
2022/03/18 02:59:56;;;;;;;37.70;23.20;;;;;;;4.34;57.30;101793.28;4444016;32;31524;-79
2022/03/18 03:02:29;;;;;;;40.67;21.83;;;;;;;4.41;57.23;101790.00;4455739;32;34516;-80
2022/03/18 03:08:01;;;;;;;42.20;24.10;;;;;;;4.11;58.42;101798.63;4457754;32;32395;-81
2022/03/18 03:10:36;;;;;;;43.70;24.17;;;;;;;4.25;57.99;101801.16;4468908;32;33429;-80
2022/03/18 03:13:10;;;;;;;43.58;24.00;;;;;;;4.28;58.17;101800.06;4468787;32;33600;-80
2022/03/18 03:15:46;;;;;;;41.80;23.55;;;;;;;4.29;58.71;101802.66;4456637;32;33068;-80
2022/03/18 03:18:20;;;;;;;44.88;23.27;;;;;;;4.34;58.67;101809.59;4456365;32;33787;-80
2022/03/18 03:20:50;;;;;;;45.00;22.60;;;;;;;4.40;58.78;101814.56;4455900;32;33290;-80
2022/03/18 03:23:19;;;;;;;35.78;21.45;;;;;;;4.45;58.75;101820.53;4456027;32;33850;-80
2022/03/18 03:25:52;;;;;;;38.15;21.45;;;;;;;4.50;58.48;101821.91;4456443;32;34442;-80
2022/03/18 03:28:20;;;;;;;37.28;19.65;;;;;;;4.61;57.78;101823.78;4455899;32;34528;-81
2022/03/18 03:30:53;;;;;;;37.45;20.12;;;;;;;4.40;57.17;101825.44;4456016;32;33281;-80
2022/03/18 03:33:32;;;;;;;34.13;19.52;;;;;;;4.67;56.18;101830.59;4455786;32;34544;-80
2022/03/18 03:36:09;;;;;;;33.65;17.55;;;;;;;4.72;55.64;101836.53;4455873;32;34552;-80
2022/03/18 03:38:48;;;;;;;35.33;19.17;;;;;;;4.97;54.83;101847.25;4458823;32;34882;-79
2022/03/18 03:41:24;;;;;;;31.02;17.37;;;;;;;4.94;54.76;101847.50;4444037;32;32012;-80
2022/03/18 03:43:57;;;;;;;31.77;17.10;;;;;;;5.19;53.88;101846.44;4455942;32;32329;-80
2022/03/18 03:46:28;;;;;;;35.22;18.85;;;;;;;5.19;53.43;101860.91;4443882;32;32823;-80
2022/03/18 03:49:01;;;;;;;30.17;16.77;;;;;;;5.11;53.50;101863.38;4456113;32;33919;-80
2022/03/18 03:51:31;;;;;;;32.33;16.45;;;;;;;5.10;52.90;101860.78;4442840;32;31775;-81
2022/03/18 03:54:01;;;;;;;28.73;16.27;;;;;;;5.29;52.48;101866.47;4468667;32;34529;-80
2022/03/18 03:56:29;;;;;;;28.05;15.65;;;;;;;5.11;53.00;101873.41;4442899;32;32706;-80
2022/03/18 03:58:59;;;;;;;30.90;16.12;;;;;;;5.26;52.89;101872.16;4468265;32;33664;-80
2022/03/18 04:01:29;;;;;;;28.95;15.57;;;;;;;5.37;52.59;101872.19;4455838;32;34458;-80
2022/03/18 04:03:58;;;;;;;29.83;16.30;;;;;;;5.18;52.92;101880.97;4455777;32;34633;-80
2022/03/18 04:06:26;;;;;;;28.83;15.02;;;;;;;5.16;53.03;101876.63;4442739;32;34074;-81
2022/03/18 04:09:04;;;;;;;29.35;15.90;;;;;;;5.16;52.81;101879.34;4455800;32;33883;-81
2022/03/18 04:11:40;;;;;;;26.65;14.35;;;;;;;5.15;52.65;101883.91;4455480;32;33598;-80
2022/03/18 04:14:16;;;;;;;23.40;13.98;;;;;;;5.22;52.22;101885.16;4468679;32;33614;-80
2022/03/18 04:16:51;;;;;;;26.95;15.18;;;;;;;5.20;51.05;101886.28;4456037;32;34355;-80
2022/03/18 04:19:27;;;;;;;25.10;14.00;;;;;;;5.07;50.30;101888.22;4455841;32;34625;-80
2022/03/18 04:22:03;;;;;;;24.35;13.85;;;;;;;5.40;49.66;101888.28;4455644;32;31905;-81
2022/03/18 04:24:39;;;;;;;24.00;13.48;;;;;;;5.20;49.53;101886.28;4455489;32;33358;-80
2022/03/18 04:27:20;;;;;;;20.92;12.20;;;;;;;5.31;48.81;101894.44;4456382;32;34447;-80
2022/03/18 04:29:54;;;;;;;25.75;14.55;;;;;;;5.38;48.11;101895.69;4455406;32;33449;-80
2022/03/18 04:32:34;;;;;;;26.10;12.90;;;;;;;5.37;47.58;101888.50;4468022;32;34341;-80
2022/03/18 04:35:13;;;;;;;20.33;11.30;;;;;;;5.42;46.37;101896.31;4456469;32;34439;-80
2022/03/18 04:37:42;;;;;;;23.62;13.00;;;;;;;5.45;46.56;101901.53;4469292;32;34524;-79
2022/03/18 04:40:16;;;;;;;24.12;12.90;;;;;;;5.58;45.57;101899.56;4455140;32;34645;-79
2022/03/18 04:42:46;;;;;;;29.63;15.57;;;;;;;5.40;45.82;101899.16;4468331;32;32335;-80
2022/03/18 04:45:23;;;;;;;34.20;19.83;;;;;;;5.37;44.69;101904.84;4455395;32;32406;-80
2022/03/18 04:47:57;;;;;;;24.87;14.45;;;;;;;5.29;44.40;101915.47;4455649;32;34463;-80
2022/03/18 04:50:33;;;;;;;25.70;14.00;;;;;;;5.41;45.18;101917.22;4442045;32;34595;-79
2022/03/18 04:53:01;;;;;;;23.05;11.52;;;;;;;5.48;45.76;101929.38;4468159;32;33455;-81
2022/03/18 04:55:30;;;;;;;23.67;11.38;;;;;;;5.58;44.06;101932.25;4454935;32;34030;-80
2022/03/18 04:58:08;;;;;;;21.73;11.10;;;;;;;5.38;42.36;101928.37;4455447;32;34354;-80
2022/03/18 05:00:39;;;;;;;18.17;10.37;;;;;;;5.41;42.65;101939.03;4456537;32;34929;-80
2022/03/18 05:03:10;;;;;;;19.23;10.75;;;;;;;5.33;42.18;101936.03;4468310;32;33205;-80
2022/03/18 05:05:52;;;;;;;20.70;11.25;;;;;;;5.59;41.77;101945.75;4467387;32;33740;-80
2022/03/18 05:08:26;;;;;;;17.75;10.25;;;;;;;5.49;41.38;101947.44;4467432;32;34494;-80
2022/03/18 05:10:58;;;;;;;18.52;10.68;;;;;;;5.57;41.96;101945.00;4467461;32;33055;-79
2022/03/18 05:13:30;;;;;;;21.15;10.07;;;;;;;5.34;41.67;101947.78;4454715;32;32019;-80
2022/03/18 05:16:06;;;;;;;21.62;10.18;;;;;;;5.35;41.26;101953.13;4456650;32;33675;-83
2022/03/18 05:18:34;;;;;;;;;;;;;;;5.41;41.00;101944.47;4457451;32;34256;-81
2022/03/18 05:21:11;;;;;;;18.33;9.90;;;;;;;5.33;40.41;101952.37;4457029;32;34847;-80
2022/03/18 05:23:43;;;;;;;15.85;9.43;;;;;;;5.19;40.88;101950.75;4457790;32;33344;-80
2022/03/18 05:26:17;;;;;;;16.58;9.93;;;;;;;5.18;40.87;101956.31;4457554;32;33189;-80
2022/03/18 05:28:54;;;;;;;27.77;14.87;;;;;;;5.28;40.77;101951.84;4457669;32;34031;-79
2022/03/18 05:31:22;;;;;;;;;;;;;;;5.42;41.12;101962.53;4457007;32;32356;-80
2022/03/18 05:33:54;;;;;;;27.10;14.80;;;;;;;5.57;41.26;101961.34;4456877;32;34069;-80
2022/03/18 05:36:25;;;;;;;20.17;10.15;;;;;;;5.33;40.67;101960.53;4456729;32;33853;-81
2022/03/18 05:39:06;;;;;;;19.35;9.73;;;;;;;5.54;40.18;101968.87;4457559;32;34476;-80
2022/03/18 05:41:43;;;;;;;18.75;9.80;;;;;;;5.67;39.62;101971.50;4469648;32;34060;-80
2022/03/18 05:44:14;;;;;;;19.05;9.82;;;;;;;5.65;39.77;101974.34;4456580;32;33539;-81
2022/03/18 05:46:48;;;;;;;17.92;9.77;;;;;;;5.41;39.41;101974.41;4469451;32;33549;-80
2022/03/18 05:49:19;;;;;;;17.92;10.50;;;;;;;5.46;39.48;101979.50;4456441;32;34012;-80
2022/03/18 05:51:47;;;;;;;20.52;9.48;;;;;;;5.74;39.39;101975.47;4456656;32;32368;-80
2022/03/18 05:54:18;;;;;;;20.35;9.63;;;;;;;5.73;39.15;101981.91;4458259;32;33271;-80
2022/03/18 05:56:54;;;;;;;22.35;10.30;;;;;;;5.54;39.31;101988.81;4458115;32;33907;-80
2022/03/18 05:59:24;;;;;;;18.02;9.63;;;;;;;5.58;39.40;101990.31;4457271;32;34226;-80
2022/03/18 06:02:00;;;;;;;20.85;10.23;;;;;;;5.52;39.25;101996.25;4469469;32;34920;-80
2022/03/18 06:04:34;;;;;;;18.45;8.65;;;;;;;5.35;39.40;102002.13;4456721;32;32084;-81
2022/03/18 06:07:06;;;;;;;20.02;9.93;;;;;;;5.70;38.47;102004.81;4444346;32;32233;-79
2022/03/18 06:12:33;;;;;;;35.53;17.05;;;;;;;5.72;38.30;102002.84;4437126;32;33587;-81
2022/03/18 06:15:04;;;;;;;30.70;15.70;;;;;;;5.85;38.73;102008.19;4469621;32;33330;-85
2022/03/18 06:17:32;;;;;;;28.67;14.45;;;;;;;5.50;39.55;102006.37;4456247;32;34598;-79
2022/03/18 06:20:04;;;;;;;18.20;9.88;;;;;;;5.49;39.62;101999.19;4442767;32;33944;-79
2022/03/18 06:22:34;;;;;;;20.60;11.57;;;;;;;5.22;39.14;102009.50;4456308;32;34719;-79
2022/03/18 06:25:11;;;;;;;19.25;10.25;;;;;;;5.23;39.34;102008.50;4468098;32;33889;-78
2022/03/18 06:27:43;;;;;;;20.52;10.27;;;;;;;5.12;39.07;102014.81;4457189;32;33744;-79
2022/03/18 06:30:11;;;;;;;18.58;9.35;;;;;;;5.47;38.83;102020.25;4456160;32;34429;-79
2022/03/18 06:32:40;;;;;;;19.25;9.80;;;;;;;5.22;38.68;102026.69;4469209;32;33561;-79
2022/03/18 06:35:11;;;;;;;18.65;8.98;;;;;;;5.50;37.99;102032.75;4444867;32;32643;-77
2022/03/18 06:37:48;;;;;;;18.47;9.60;;;;;;;5.69;37.61;102024.88;4458797;32;32258;-80
2022/03/18 06:40:19;;;;;;;17.90;9.68;;;;;;;5.97;37.56;102030.88;4469161;32;34122;-81
2022/03/18 06:42:50;;;;;;;19.70;9.32;;;;;;;6.30;37.31;102033.66;4471723;32;34025;-80
2022/03/18 06:45:18;;;;;;;43.45;23.52;;;;;;;5.89;37.41;102036.94;4471815;32;32699;-79
2022/03/18 06:47:46;;;;;;;53.65;26.15;;;;;;;5.99;37.70;102037.94;4471303;32;33429;-79
2022/03/18 06:50:14;;;;;;;25.15;13.10;;;;;;;5.60;37.79;102036.50;4484286;32;36350;-79
2022/03/18 06:52:42;;;;;;;19.25;10.75;;;;;;;5.57;38.03;102047.63;4470620;32;33427;-80
2022/03/18 06:55:12;;;;;;;20.85;10.38;;;;;;;5.47;37.86;102035.72;4470962;32;33013;-80
2022/03/18 06:57:42;;;;;;;21.45;11.02;;;;;;;5.59;38.52;102042.94;4471586;32;32176;-79
2022/03/18 07:00:14;;;;;;;22.98;10.65;;;;;;;5.73;37.84;102050.03;4458871;32;32844;-80
2022/03/18 07:02:45;;;;;;;20.95;10.85;;;;;;;6.11;37.41;102045.16;4471829;32;32491;-81
2022/03/18 07:05:17;;;;;;;19.80;10.98;;;;;;;6.10;37.98;102050.72;4458339;32;31816;-81
2022/03/18 07:07:48;;;;;;;21.15;10.43;;;;;;;5.67;37.51;102066.84;4471594;32;34051;-80
2022/03/18 07:10:16;;;;;;;16.80;9.65;;;;;;;5.95;37.57;102053.69;4484536;32;34332;-81
2022/03/18 07:12:46;;;;;;;20.15;9.90;;;;;;;5.65;37.65;102066.09;4471740;32;32392;-81
2022/03/18 07:15:19;;;;;;;22.75;11.12;;;;;;;5.95;37.18;102055.53;4459578;32;31780;-80
2022/03/18 07:17:59;;;;;;;65.85;33.33;;;;;;;5.99;37.45;102065.22;4470733;32;34336;-79
2022/03/18 07:20:38;;;;;;;29.65;15.90;;;;;;;6.12;36.92;102060.53;4471010;32;34664;-80
2022/03/18 07:23:15;;;;;;;23.10;12.30;;;;;;;6.07;36.97;102068.19;4470053;32;32418;-80
2022/03/18 07:25:44;;;;;;;21.37;10.73;;;;;;;6.23;35.96;102059.66;4482370;32;33597;-81
2022/03/18 07:28:16;;;;;;;21.30;10.32;;;;;;;6.30;36.22;102063.63;4469848;32;32354;-80
2022/03/18 07:30:47;;;;;;;18.05;10.13;;;;;;;6.30;35.83;102068.22;4469548;32;34259;-81
2022/03/18 07:33:15;;;;;;;18.77;11.07;;;;;;;6.44;36.00;102077.03;4482571;32;33722;-80
2022/03/18 07:35:45;;;;;;;22.17;9.75;;;;;;;5.99;36.88;102083.41;4470386;32;33487;-81
2022/03/18 07:38:13;;;;;;;20.90;10.05;;;;;;;5.95;36.70;102086.38;4470082;32;33211;-81
2022/03/18 07:40:41;;;;;;;20.00;10.27;;;;;;;5.86;37.27;102094.37;4458464;32;32997;-81
2022/03/18 07:43:09;;;;;;;19.35;10.57;;;;;;;6.30;37.05;102090.91;4471465;32;34852;-81
2022/03/18 07:45:40;;;;;;;36.63;20.25;;;;;;;6.24;36.99;102092.28;4471589;32;32035;-81
2022/03/18 07:48:13;;;;;;;35.30;17.20;;;;;;;6.33;36.70;102095.25;4471454;32;33488;-80
2022/03/18 07:50:41;;;;;;;27.50;13.85;;;;;;;6.49;37.20;102102.09;4485388;32;35186;-81
2022/03/18 07:53:09;;;;;;;23.48;13.15;;;;;;;6.35;37.20;102102.31;4471081;32;33387;-81
2022/03/18 07:55:38;;;;;;;19.60;10.48;;;;;;;6.47;37.19;102112.25;4458595;32;32817;-81
2022/03/18 07:58:08;;;;;;;27.15;14.90;;;;;;;6.52;37.17;102114.56;4471451;32;33395;-80
2022/03/18 08:00:36;;;;;;;26.83;13.20;;;;;;;6.46;37.74;102115.97;4471218;32;34433;-80
2022/03/18 08:03:04;;;;;;;23.33;12.50;;;;;;;6.60;37.66;102117.56;4471163;32;34054;-81
2022/03/18 08:05:36;;;;;;;24.50;12.30;;;;;;;6.68;37.13;102119.66;4483877;32;33325;-82
2022/03/18 08:08:05;;;;;;;22.58;11.85;;;;;;;6.75;36.80;102119.06;4471229;32;34535;-81
2022/03/18 08:10:33;;;;;;;23.12;12.00;;;;;;;6.65;37.10;102122.66;4471098;32;35175;-80
2022/03/18 08:13:00;;;;;;;24.87;11.57;;;;;;;6.86;37.20;102118.19;4458353;32;33008;-80
2022/03/18 08:15:28;;;;;;;36.28;19.50;;;;;;;6.81;37.25;102118.56;4471225;32;32609;-80
2022/03/18 08:17:56;;;;;;;79.10;37.20;;;;;;;7.06;37.41;102125.59;4471289;32;34636;-80
2022/03/18 08:20:24;;;;;;;34.03;16.27;;;;;;;7.17;37.42;102130.16;4471052;32;35329;-80
2022/03/18 08:22:52;;;;;;;29.08;14.15;;;;;;;7.37;37.06;102126.62;4483922;32;34136;-80
2022/03/18 08:25:19;;;;;;;27.17;12.80;;;;;;;7.15;37.12;102137.63;4471087;32;32759;-80
2022/03/18 08:27:48;;;;;;;24.73;12.57;;;;;;;7.15;37.01;102137.63;4484048;32;34571;-81
2022/03/18 08:30:17;;;;;;;29.17;11.75;;;;;;;7.23;36.62;102133.25;4470785;32;34838;-81
2022/03/18 08:32:46;;;;;;;25.35;12.80;;;;;;;7.71;36.10;102137.44;4470590;32;34458;-81
2022/03/18 08:35:16;;;;;;;23.83;12.07;;;;;;;7.62;35.71;102143.69;4468063;32;33501;-80
2022/03/18 08:37:56;;;;;;;20.50;12.02;;;;;;;7.84;35.77;102144.44;4468059;32;33692;-82
2022/03/18 08:40:34;;;;;;;23.27;13.07;;;;;;;7.68;35.57;102146.78;4455905;32;34374;-81
2022/03/18 08:43:06;;;;;;;50.00;26.77;;;;;;;7.75;36.07;102149.84;4456023;32;34070;-81
2022/03/18 08:45:36;;;;;;;34.60;18.27;;;;;;;7.73;35.85;102143.66;4468115;32;33417;-82
2022/03/18 08:48:05;;;;;;;26.23;12.60;;;;;;;7.90;35.77;102151.25;4455184;32;34692;-81
2022/03/18 08:50:35;;;;;;;26.15;12.98;;;;;;;8.26;34.99;102155.41;4456653;32;33056;-81
2022/03/18 08:53:09;;;;;;;23.45;13.35;;;;;;;7.93;35.16;102156.47;4457090;32;33755;-80
2022/03/18 08:55:41;;;;;;;20.20;12.07;;;;;;;8.28;35.61;102153.41;4457922;32;32816;-80
2022/03/18 08:58:09;;;;;;;22.45;11.68;;;;;;;8.04;35.37;102156.41;4470141;32;32552;-80
2022/03/18 09:00:41;;;;;;;21.45;11.50;;;;;;;8.51;35.14;102157.75;4478535;32;35375;-80
2022/03/18 09:03:09;;;;;;;26.75;13.07;;;;;;;8.76;35.73;102155.56;4467960;32;34038;-82
2022/03/18 09:05:37;;;;;;;26.08;12.45;;;;;;;8.56;35.66;102163.69;4479588;31;33362;-80
2022/03/18 09:08:05;;;;;;;23.42;12.43;;;;;;;8.59;34.97;102159.81;4455158;32;31990;-80
2022/03/18 09:10:33;;;;;;;23.70;13.48;;;;;;;8.81;34.44;102165.13;4457043;32;35149;-80
2022/03/18 09:13:07;;;;;;;24.00;13.05;;;;;;;8.95;34.34;102171.22;4457460;32;33920;-80
2022/03/18 09:15:35;;;;;;;28.98;14.18;;;;;;;9.13;34.80;102164.06;4456843;32;33277;-81
2022/03/18 09:18:09;;;;;;;26.33;14.82;;;;;;;9.24;34.81;102169.44;4444212;32;32036;-81
2022/03/18 09:20:39;;;;;;;28.55;15.18;;;;;;;9.03;35.52;102171.41;4457119;32;34303;-81
2022/03/18 09:23:08;;;;;;;28.62;14.70;;;;;;;9.35;35.17;102183.03;4444495;32;34004;-81
2022/03/18 09:25:36;;;;;;;24.42;13.85;;;;;;;9.21;35.46;102173.31;4444851;32;33332;-81
2022/03/18 09:28:04;;;;;;;22.45;12.75;;;;;;;9.66;34.91;102178.34;4430926;32;32076;-81
2022/03/18 09:30:50;;;;;;;24.75;13.80;;;;;;;9.71;35.42;102186.16;4445419;32;33801;-82
2022/03/18 09:33:18;;;;;;;27.45;15.38;;;;;;;10.11;35.42;102167.66;4443961;32;33480;-81
2022/03/18 09:35:46;;;;;;;22.42;13.35;;;;;;;10.08;35.21;102180.81;4460127;31;33104;-82
2022/03/18 09:38:16;;;;;;;26.58;14.73;;;;;;;9.98;35.50;102174.44;4461809;32;33749;-81
2022/03/18 09:40:47;;;;;;;26.30;14.35;;;;;;;10.11;35.24;102169.53;4443421;32;33882;-81
2022/03/18 09:43:37;;;;;;;27.83;15.23;;;;;;;10.34;35.18;102179.22;4447191;32;32362;-82
2022/03/18 09:46:10;;;;;;;27.55;14.85;;;;;;;10.57;34.82;102174.25;4456507;32;33075;-81
2022/03/18 09:49:01;;;;;;;26.10;13.80;;;;;;;10.86;34.35;102175.03;4456467;32;33356;-82
2022/03/18 09:51:29;;;;;;;28.02;14.77;;;;;;;10.77;33.98;102172.31;4456647;32;35386;-82
2022/03/18 09:54:28;;;;;;;31.10;17.98;;;;;;;10.83;34.39;102167.09;4459766;32;33745;-81
2022/03/18 09:56:57;;;;;;;27.83;17.30;;;;;;;11.21;34.63;102167.91;4456312;32;32773;-82
2022/03/18 09:59:28;;;;;;;30.02;18.62;;;;;;;11.49;34.39;102168.78;4456203;32;33681;-81
2022/03/18 10:02:28;;;;;;;38.15;21.80;;;;;;;11.69;34.08;102172.28;4456393;32;35101;-82
2022/03/18 10:05:02;;;;;;;27.52;15.25;;;;;;;11.27;34.03;102181.06;4444142;32;32362;-82
2022/03/18 10:07:33;;;;;;;25.45;15.10;;;;;;;11.86;33.63;102174.19;4444043;32;32410;-83
2022/03/18 10:10:05;;;;;;;30.17;15.32;;;;;;;12.07;33.51;102177.47;4465571;31;34021;-82
2022/03/18 10:12:38;;;;;;;26.27;15.25;;;;;;;11.91;33.31;102181.97;4484563;31;35306;-82
2022/03/18 10:15:08;;;;;;;25.65;15.20;;;;;;;12.27;33.32;102177.31;4486531;31;33938;-81
2022/03/18 10:17:39;;;;;;;52.33;29.67;;;;;;;12.53;32.81;102179.06;4474212;31;31851;-81
2022/03/18 10:20:08;;;;;;;33.50;18.77;;;;;;;12.59;34.33;102176.69;4457557;32;33118;-82
2022/03/18 10:22:36;;;;;;;31.02;16.90;;;;;;;12.94;33.68;102181.22;4458617;32;34508;-81
2022/03/18 10:25:04;;;;;;;32.15;16.73;;;;;;;12.84;33.59;102175.81;4458560;32;33955;-82
2022/03/18 10:27:32;;;;;;;29.40;15.68;;;;;;;13.25;33.11;102187.94;4444388;32;33646;-82
2022/03/18 10:30:03;;;;;;;28.75;16.62;;;;;;;12.86;32.83;102180.16;4459532;32;33677;-82
2022/03/18 10:32:54;;;;;;;31.77;17.92;;;;;;;12.90;33.29;102177.94;4460226;32;34358;-81
2022/03/18 10:38:31;;;;;;;33.65;19.45;;;;;;;13.28;33.24;102173.81;4453549;32;31922;-81
2022/03/18 10:41:05;;;;;;;29.58;16.48;;;;;;;12.95;33.17;102174.69;4471427;32;33641;-81
2022/03/18 10:43:52;;;;;;;27.30;16.62;;;;;;;12.85;33.17;102172.03;4472210;32;34358;-81
2022/03/18 10:46:23;;;;;;;29.05;18.20;;;;;;;13.10;33.19;102171.12;4442862;32;32470;-82
2022/03/18 10:49:05;;;;;;;30.05;17.08;;;;;;;13.33;33.24;102182.47;4446582;32;33190;-82
2022/03/18 10:51:34;;;;;;;27.48;16.40;;;;;;;13.23;32.90;102184.47;4459869;31;33307;-81
2022/03/18 10:54:07;;;;;;;31.50;17.70;;;;;;;13.53;33.02;102174.78;4473694;31;33062;-82
2022/03/18 10:56:52;;;;;;;37.20;21.35;;;;;;;12.79;33.74;102175.44;4471300;32;33905;-81
2022/03/18 10:59:22;;;;;;;51.37;31.27;;;;;;;13.26;33.21;102186.91;4483042;31;128128;-82
2022/03/18 11:01:51;;;;;;;110.68;54.42;;;;;;;13.54;32.85;102168.22;4463685;31;33842;-81
2022/03/18 11:04:20;;;;;;;102.95;57.42;;;;;;;13.49;33.47;102173.38;4486436;31;35102;-81
2022/03/18 11:12:33;;;;;;;51.37;30.98;;;;;;;12.57;34.85;102179.59;4475063;32;34668;-80
2022/03/18 11:15:03;;;;;;;32.90;20.50;;;;;;;12.53;35.28;102178.19;4471253;32;34315;-80
2022/03/18 11:17:31;;;;;;;30.40;18.45;;;;;;;12.61;35.63;102174.62;4457884;32;32513;-81
2022/03/18 11:20:02;;;;;;;31.80;17.65;;;;;;;12.81;35.41;102174.25;4445178;31;31850;-81
2022/03/18 11:22:34;;;;;;;29.63;17.75;;;;;;;12.86;35.15;102168.25;4486822;31;33255;-82
2022/03/18 11:25:04;;;;;;;32.72;18.30;;;;;;;13.01;34.43;102171.25;4474490;31;34422;-80
2022/03/18 11:27:41;;;;;;;32.53;18.50;;;;;;;12.65;35.22;102165.00;4474062;31;34725;-82
2022/03/18 11:30:29;;;;;;;;;;;;;;;12.86;35.04;102165.50;4474020;31;32711;-81
2022/03/18 11:33:11;;;;;;;36.13;19.90;;;;;;;12.56;35.80;102172.34;4474037;31;33045;-82
2022/03/18 11:35:48;;;;;;;30.90;18.42;;;;;;;13.06;35.04;102168.84;4486916;31;34221;-81
2022/03/18 11:38:25;;;;;;;33.85;18.65;;;;;;;12.86;35.48;102168.25;4474151;31;32357;-80
2022/03/18 11:40:58;;;;;;;27.17;18.00;;;;;;;12.85;35.79;102163.78;4500973;31;33518;-81
2022/03/18 11:43:43;;;;;;;30.10;17.52;;;;;;;13.17;35.41;102160.31;4473803;31;31756;-82
2022/03/18 11:46:16;;;;;;;35.45;19.67;;;;;;;13.18;35.78;102162.91;4473976;31;33848;-81
2022/03/18 11:49:02;;;;;;;46.05;28.10;;;;;;;13.51;35.31;102154.78;4473968;31;32289;-82
2022/03/18 11:51:34;;;;;;;32.60;19.67;;;;;;;13.61;35.26;102146.34;4474086;31;33299;-84
2022/03/18 11:54:16;;;;;;;26.45;15.70;;;;;;;13.56;35.64;102155.13;4500884;31;33826;-81
2022/03/18 11:56:49;;;;;;;30.58;18.73;;;;;;;13.88;44.12;102148.78;4471061;31;33212;-82
2022/03/18 11:59:29;;;;;;;30.45;18.58;;;;;;;13.90;35.64;102148.63;4474057;31;32546;-82
2022/03/18 12:02:00;;;;;;;45.63;26.12;;;;;;;13.97;35.06;102147.78;4473980;31;32707;-82
2022/03/18 12:04:41;;;;;;;41.40;30.05;;;;;;;13.78;35.12;102153.59;4487141;31;33865;-81
2022/03/18 12:07:24;;;;;;;30.77;19.67;;;;;;;13.57;35.51;102145.81;4473480;31;33852;-82